Time;durP1;ratioP1;P1;durP2;ratioP2;P2;SDS_P1;SDS_P2;PMS_P1;PMS_P2;Temp;Humidity;BMP_temperature;BMP_pressure;BME280_temperature;BME280_humidity;BME280_pressure;Samples;Min_cycle;Max_cycle;Signal;HPM_P1;HPM_P2
2022/11/21 00:00:04;;;;;;;;;;;;;;;12.78;68.93;100259.97;1265609;23;692;-70
2022/11/21 00:00:56;;;;;;;;;;;;;;;12.81;69.57;100249.88;1264468;23;663;-70
2022/11/21 00:01:46;;;;;;;;;;;;;;;12.80;68.82;100261.53;1265495;23;555;-71
2022/11/21 00:02:37;;;;;;;;;;;;;;;12.78;69.42;100257.31;1267284;23;661;-70
2022/11/21 00:03:27;;;;;;;;;;;;;;;12.78;69.27;100260.81;1267326;23;658;-71
2022/11/21 00:04:17;;;;;;;;;;;;;;;12.76;68.63;100267.28;1253847;23;631;-70
2022/11/21 00:05:08;;;;;;;;;;;;;;;12.75;69.37;100265.56;1255318;23;646;-70
2022/11/21 00:05:58;;;;;;;;;;;;;;;12.77;69.64;100269.81;1255172;23;665;-70
2022/11/21 00:06:49;;;;;;;;;;;;;;;12.78;69.24;100266.16;1254218;23;613;-71
2022/11/21 00:07:39;;;;;;;;;;;;;;;12.76;69.22;100268.13;1254813;23;614;-71
2022/11/21 00:08:30;;;;;;;;;;;;;;;12.73;69.63;100272.88;1255346;23;658;-71
2022/11/21 00:09:20;;;;;;;;;;;;;;;12.72;69.01;100271.19;1255207;23;657;-70
2022/11/21 00:10:10;;;;;;;;;;;;;;;12.71;69.70;100280.19;1254396;23;685;-70
2022/11/21 00:11:01;;;;;;;;;;;;;;;12.76;69.22;100276.13;1254315;23;712;-71
2022/11/21 00:11:51;;;;;;;;;;;;;;;12.74;69.09;100270.06;1255324;23;615;-71
2022/11/21 00:12:42;;;;;;;;;;;;;;;12.74;69.27;100270.06;1255255;23;580;-71
2022/11/21 00:13:32;;;;;;;;;;;;;;;12.76;68.57;100273.47;1254477;23;677;-71
2022/11/21 00:14:23;;;;;;;;;;;;;;;12.76;68.59;100276.13;1255224;23;665;-71
2022/11/21 00:15:13;;;;;;;;;;;;;;;12.72;68.63;100276.53;1255241;23;650;-72
2022/11/21 00:16:04;;;;;;;;;;;;;;;12.71;69.15;100274.84;1255318;23;637;-72
2022/11/21 00:16:54;;;;;;;;;;;;;;;12.73;69.68;100276.38;1255128;23;618;-72
2022/11/21 00:17:44;;;;;;;;;;;;;;;12.75;68.89;100271.75;1255292;23;677;-72
2022/11/21 00:18:35;;;;;;;;;;;;;;;12.72;68.71;100272.00;1254355;23;575;-72
2022/11/21 00:19:25;;;;;;;;;;;;;;;12.73;69.15;100272.88;1255163;23;618;-70
2022/11/21 00:20:16;;;;;;;;;;;;;;;12.75;68.95;100274.44;1255266;23;673;-72
2022/11/21 00:21:06;;;;;;;;;;;;;;;12.75;69.36;100271.75;1255150;23;698;-72
2022/11/21 00:21:56;;;;;;;;;;;;;;;12.75;69.01;100271.75;1253974;23;725;-71
2022/11/21 00:22:47;;;;;;;;;;;;;;;12.74;68.64;100272.75;1254697;23;676;-72
2022/11/21 00:23:37;;;;;;;;;;;;;;;12.71;68.72;100270.34;1253910;23;632;-72
2022/11/21 00:24:28;;;;;;;;;;;;;;;12.72;69.43;100272.00;1254792;23;605;-71
2022/11/21 00:25:18;;;;;;;;;;;;;;;12.74;69.36;100271.88;1255095;23;621;-72
2022/11/21 00:26:09;;;;;;;;;;;;;;;12.73;69.03;100276.38;1255190;23;648;-72
2022/11/21 00:26:59;;;;;;;;;;;;;;;12.71;69.19;100282.88;1255117;23;629;-72
2022/11/21 00:27:49;;;;;;;;;;;;;;;12.69;69.66;100288.34;1255186;23;657;-73
2022/11/21 00:28:40;;;;;;;;;;;;;;;12.70;69.49;100289.19;1255357;23;638;-73
2022/11/21 00:29:30;;;;;;;;;;;;;;;12.69;69.43;100285.66;1255226;23;672;-73
2022/11/21 00:30:21;;;;;;;;;;;;;;;12.73;69.21;100278.22;1255146;23;621;-70
2022/11/21 00:31:11;;;;;;;;;;;;;;;12.70;69.28;100282.03;1255166;23;650;-73
2022/11/21 00:32:02;;;;;;;;;;;;;;;12.70;69.51;100278.50;1255166;23;629;-73
2022/11/21 00:32:52;;;;;;;;;;;;;;;12.71;69.61;100285.53;1253431;23;634;-73
2022/11/21 00:33:42;;;;;;;;;;;;;;;12.69;69.07;100284.81;1254839;23;693;-72
2022/11/21 00:34:33;;;;;;;;;;;;;;;12.69;69.20;100283.00;1255156;23;650;-72
2022/11/21 00:35:23;;;;;;;;;;;;;;;12.74;68.46;100287.94;1254047;23;623;-73
2022/11/21 00:36:14;;;;;;;;;;;;;;;12.75;68.58;100277.13;1254745;23;677;-72
2022/11/21 00:37:04;;;;;;;;;;;;;;;12.74;68.75;100287.94;1255172;23;661;-72
2022/11/21 00:37:55;;;;;;;;;;;;;;;12.70;68.81;100284.69;1255197;23;638;-72
2022/11/21 00:38:45;;;;;;;;;;;;;;;12.70;69.32;100282.03;1254357;23;626;-72
2022/11/21 00:39:35;;;;;;;;;;;;;;;12.70;68.83;100286.50;1254331;23;614;-71
2022/11/21 00:40:26;;;;;;;;;;;;;;;12.68;69.69;100283.97;1255209;23;620;-72
2022/11/21 00:41:16;;;;;;;;;;;;;;;12.66;69.88;100285.91;1255249;23;614;-71
2022/11/21 00:42:07;;;;;;;;;;;;;;;12.67;69.43;100284.09;1255174;23;609;-71
2022/11/21 00:42:57;;;;;;;;;;;;;;;12.68;69.00;100283.97;1255220;23;602;-72
2022/11/21 00:43:47;;;;;;;;;;;;;;;12.65;69.47;100278.88;1255291;23;661;-72
2022/11/21 00:44:38;;;;;;;;;;;;;;;12.68;69.77;100283.97;1255122;23;614;-72
2022/11/21 00:45:28;;;;;;;;;;;;;;;12.69;69.11;100285.66;1255281;23;629;-72
2022/11/21 00:46:19;;;;;;;;;;;;;;;12.72;68.93;100293.41;1255221;23;668;-71
2022/11/21 00:47:09;;;;;;;;;;;;;;;12.74;69.10;100290.59;1254355;23;595;-71
2022/11/21 00:47:59;;;;;;;;;;;;;;;12.72;69.46;100293.41;1254335;23;653;-71
2022/11/21 00:48:50;;;;;;;;;;;;;;;12.68;68.93;100291.97;1254338;23;712;-72
2022/11/21 00:49:41;;;;;;;;;;;;;;;12.64;69.77;100287.00;1254311;23;1897;-72
2022/11/21 00:50:31;;;;;;;;;;;;;;;12.69;69.15;100291.00;1255225;23;665;-71
2022/11/21 00:51:22;;;;;;;;;;;;;;;12.71;68.81;100289.06;1255331;23;602;-72
2022/11/21 00:52:12;;;;;;;;;;;;;;;12.70;69.63;100282.03;1253942;23;783;-72
2022/11/21 00:53:02;;;;;;;;;;;;;;;12.69;68.88;100285.66;1254808;23;622;-71
2022/11/21 00:53:53;;;;;;;;;;;;;;;12.67;69.51;100287.59;1255246;23;634;-71
2022/11/21 00:54:43;;;;;;;;;;;;;;;12.68;68.84;100283.97;1255161;23;638;-71
2022/11/21 00:55:36;;;;;;;;;;;;;;;12.67;69.53;100284.09;1255328;23;637;-72
2022/11/21 00:56:26;;;;;;;;;;;;;;;12.63;69.80;100280.81;1255167;23;625;-72
2022/11/21 00:57:16;;;;;;;;;;;;;;;12.66;69.22;100287.72;1255118;23;661;-71
2022/11/21 00:58:07;;;;;;;;;;;;;;;12.66;69.73;100283.25;1255167;23;593;-71
2022/11/21 00:58:57;;;;;;;;;;;;;;;12.70;69.76;100275.81;1254570;23;607;-71
2022/11/21 00:59:48;;;;;;;;;;;;;;;12.66;69.85;100275.22;1255161;23;633;-72
2022/11/21 01:00:38;;;;;;;;;;;;;;;12.67;68.87;100276.06;1255192;23;642;-72
2022/11/21 01:01:28;;;;;;;;;;;;;;;12.68;69.09;100269.75;1254365;23;862;-72
2022/11/21 01:02:19;;;;;;;;;;;;;;;12.67;69.25;100268.91;1255067;23;634;-72
2022/11/21 01:03:09;;;;;;;;;;;;;;;12.68;69.19;100273.28;1254400;23;622;-72
2022/11/21 01:04:00;;;;;;;;;;;;;;;12.70;69.50;100265.97;1265560;23;1064;-72
2022/11/21 01:04:50;;;;;;;;;;;;;;;12.68;68.97;100269.75;1265440;23;607;-72
2022/11/21 01:05:41;;;;;;;;;;;;;;;12.67;70.01;100266.22;1267174;23;614;-72
2022/11/21 01:06:31;;;;;;;;;;;;;;;12.69;69.59;100261.59;1265379;23;698;-72
2022/11/21 01:07:21;;;;;;;;;;;;;;;12.71;69.43;100266.81;1267134;23;606;-72
2022/11/21 01:08:12;;;;;;;;;;;;;;;12.67;69.02;100268.91;1267242;23;626;-72
2022/11/21 01:09:02;;;;;;;;;;;;;;;12.64;69.38;100271.81;1265399;23;622;-72
2022/11/21 01:09:53;;;;;;;;;;;;;;;12.66;68.80;100271.69;1267115;23;1939;-72
2022/11/21 01:10:43;;;;;;;;;;;;;;;12.70;69.02;100274.00;1267123;23;614;-72
2022/11/21 01:11:33;;;;;;;;;;;;;;;12.70;68.95;100274.00;1265477;23;619;-72
2022/11/21 01:12:24;;;;;;;;;;;;;;;12.72;68.77;100273.88;1265711;23;646;-72
2022/11/21 01:13:14;;;;;;;;;;;;;;;12.71;69.15;100278.38;1265487;23;600;-72
2022/11/21 01:14:05;;;;;;;;;;;;;;;12.67;69.55;100281.41;1265863;23;666;-71
2022/11/21 01:14:55;;;;;;;;;;;;;;;12.67;69.30;100276.91;1265406;23;612;-70
2022/11/21 01:15:46;;;;;;;;;;;;;;;12.70;69.30;100278.50;1265487;23;650;-71
2022/11/21 01:16:36;;;;;;;;;;;;;;;12.67;69.12;100276.91;1264775;23;615;-72
2022/11/21 01:17:26;;;;;;;;;;;;;;;12.69;68.88;100268.78;1265520;23;610;-71
2022/11/21 01:18:17;;;;;;;;;;;;;;;12.66;69.52;100271.69;1265560;23;615;-71
2022/11/21 01:19:07;;;;;;;;;;;;;;;12.63;70.08;100267.44;1260736;23;661;-71
2022/11/21 01:19:58;;;;;;;;;;;;;;;12.66;69.98;100279.72;1259951;23;646;-71
2022/11/21 01:20:48;;;;;;;;;;;;;;;12.66;69.33;100274.38;1267228;23;641;-71
2022/11/21 01:21:39;;;;;;;;;;;;;;;12.65;68.96;100275.34;1267037;23;629;-71
2022/11/21 01:22:29;;;;;;;;;;;;;;;12.70;68.97;100275.81;1265337;23;634;-71
2022/11/21 01:23:19;;;;;;;;;;;;;;;12.67;68.92;100274.25;1265505;23;668;-72
2022/11/21 01:24:10;;;;;;;;;;;;;;;12.64;69.11;100271.81;1265595;23;602;-72
2022/11/21 01:25:00;;;;;;;;;;;;;;;12.61;69.77;100266.72;1265410;23;638;-72
2022/11/21 01:25:51;;;;;;;;;;;;;;;12.65;69.54;100270.84;1265602;23;627;-72
2022/11/21 01:26:41;;;;;;;;;;;;;;;12.60;69.24;100269.53;1265272;23;631;-72
2022/11/21 01:27:32;;;;;;;;;;;;;;;12.63;69.59;100272.78;1267138;23;634;-72
2022/11/21 01:28:22;;;;;;;;;;;;;;;12.66;69.23;100269.03;1265200;23;632;-72
2022/11/21 01:29:12;;;;;;;;;;;;;;;12.67;68.93;100262.69;1267079;23;598;-72
2022/11/21 01:30:03;;;;;;;;;;;;;;;12.63;69.88;100255.91;1265745;23;1920;-72
2022/11/21 01:30:53;;;;;;;;;;;;;;;12.65;69.87;100249.47;1266955;23;626;-72
2022/11/21 01:31:44;;;;;;;;;;;;;;;12.68;68.97;100251.88;1267470;23;650;-72
2022/11/21 01:32:34;;;;;;;;;;;;;;;12.64;69.20;100254.94;1265725;23;557;-71
2022/11/21 01:33:25;;;;;;;;;;;;;;;12.65;69.18;100249.47;1266042;23;709;-71
2022/11/21 01:34:15;;;;;;;;;;;;;;;12.67;69.42;100250.19;1265603;23;607;-71
2022/11/21 01:35:06;;;;;;;;;;;;;;;12.66;69.29;100253.84;1265983;23;646;-71
2022/11/21 01:35:56;;;;;;;;;;;;;;;12.66;69.71;100248.50;1266721;23;606;-71
2022/11/21 01:36:47;;;;;;;;;;;;;;;12.68;69.92;100248.38;1266015;23;642;-71
2022/11/21 01:37:37;;;;;;;;;;;;;;;12.65;69.11;100252.13;1265808;23;658;-71
2022/11/21 01:38:28;;;;;;;;;;;;;;;12.66;69.17;100251.16;1265984;23;607;-70
2022/11/21 01:39:18;;;;;;;;;;;;;;;12.67;69.40;100250.19;1265688;23;602;-71
2022/11/21 01:40:09;;;;;;;;;;;;;;;12.63;69.46;100248.75;1267591;23;634;-71
2022/11/21 01:40:59;;;;;;;;;;;;;;;12.64;69.61;100245.09;1265577;23;627;-72
2022/11/21 01:41:49;;;;;;;;;;;;;;;12.65;68.99;100243.25;1267362;23;630;-72
2022/11/21 01:42:40;;;;;;;;;;;;;;;12.65;69.03;100243.25;1266029;23;677;-71
2022/11/21 01:43:30;;;;;;;;;;;;;;;12.61;69.67;100236.47;1261108;23;622;-71
2022/11/21 01:44:21;;;;;;;;;;;;;;;12.63;69.97;100237.19;1261879;23;607;-71
2022/11/21 01:45:11;;;;;;;;;;;;;;;12.62;69.04;100238.16;1268387;23;590;-71
2022/11/21 01:46:01;;;;;;;;;;;;;;;12.62;69.80;100239.03;1260958;23;595;-71
2022/11/21 01:46:52;;;;;;;;;;;;;;;12.65;69.00;100238.78;1261802;23;555;-71
2022/11/21 01:47:42;;;;;;;;;;;;;;;12.65;70.08;100238.78;1267569;23;524;-72
2022/11/21 01:48:33;;;;;;;;;;;;;;;12.65;68.99;100237.91;1265998;23;591;-72
2022/11/21 01:49:23;;;;;;;;;;;;;;;12.60;70.11;100246.31;1265689;23;622;-72
2022/11/21 01:50:14;;;;;;;;;;;;;;;12.63;69.05;100246.06;1265935;23;651;-72
2022/11/21 01:51:04;;;;;;;;;;;;;;;12.62;68.98;100244.38;1261154;23;615;-73
2022/11/21 01:51:54;;;;;;;;;;;;;;;12.63;68.97;100240.72;1261965;23;642;-71
2022/11/21 01:52:45;;;;;;;;;;;;;;;12.62;69.78;100244.38;1266597;23;658;-71
2022/11/21 01:53:35;;;;;;;;;;;;;;;12.63;69.27;100243.38;1260944;23;634;-72
2022/11/21 01:54:26;;;;;;;;;;;;;;;12.62;68.83;100249.72;1261840;23;692;-72
2022/11/21 01:55:16;;;;;;;;;;;;;;;12.65;69.87;100254.81;1267382;23;807;-71
2022/11/21 01:56:07;;;;;;;;;;;;;;;12.64;69.13;100253.09;1265820;23;646;-71
2022/11/21 01:56:57;;;;;;;;;;;;;;;12.65;69.05;100254.81;1266045;23;610;-71
2022/11/21 01:57:48;;;;;;;;;;;;;;;12.63;68.97;100254.09;1265699;23;653;-71
2022/11/21 01:58:38;;;;;;;;;;;;;;;12.60;69.12;100262.34;1264936;23;638;-71
2022/11/21 01:59:29;;;;;;;;;;;;;;;12.62;69.73;100265.75;1265921;23;650;-72
2022/11/21 02:00:20;;;;;;;;;;;;;;;12.67;69.42;100268.06;1265681;23;630;-72
2022/11/21 02:01:11;;;;;;;;;;;;;;;12.67;68.82;100268.91;1265228;23;678;-72
2022/11/21 02:02:01;;;;;;;;;;;;;;;12.69;69.63;100266.09;1265525;23;615;-72
2022/11/21 02:02:52;;;;;;;;;;;;;;;12.67;69.61;100273.41;1265771;23;697;-72
2022/11/21 02:03:42;;;;;;;;;;;;;;;12.64;68.62;100274.50;1267155;23;1128;-72
2022/11/21 02:04:33;;;;;;;;;;;;;;;12.67;69.38;100276.06;1265943;23;614;-71
2022/11/21 02:05:23;;;;;;;;;;;;;;;12.64;69.50;100279.00;1261059;23;709;-72
2022/11/21 02:06:13;;;;;;;;;;;;;;;12.65;68.94;100272.66;1261949;23;558;-72
2022/11/21 02:07:04;;;;;;;;;;;;;;;12.63;69.44;100272.78;1265940;23;523;-72
2022/11/21 02:07:54;;;;;;;;;;;;;;;12.66;69.67;100274.38;1265782;23;634;-72
2022/11/21 02:08:45;;;;;;;;;;;;;;;12.64;69.08;100269.16;1265861;23;673;-72
2022/11/21 02:09:35;;;;;;;;;;;;;;;12.64;69.32;100279.84;1265633;23;618;-71
2022/11/21 02:10:26;;;;;;;;;;;;;;;12.64;68.66;100274.50;1261037;23;618;-71
2022/11/21 02:11:16;;;;;;;;;;;;;;;12.60;68.67;100275.72;1261924;23;621;-72
2022/11/21 02:12:07;;;;;;;;;;;;;;;12.60;69.31;100267.69;1267440;23;665;-71
2022/11/21 02:12:57;;;;;;;;;;;;;;;12.61;68.93;100272.06;1267441;23;657;-71
2022/11/21 02:13:47;;;;;;;;;;;;;;;12.62;68.95;100270.25;1267442;23;590;-71
2022/11/21 02:14:38;;;;;;;;;;;;;;;12.64;69.48;100277.16;1266926;23;677;-72
2022/11/21 02:15:28;;;;;;;;;;;;;;;12.61;69.70;100268.53;1265647;23;641;-72
2022/11/21 02:16:19;;;;;;;;;;;;;;;12.60;69.24;100272.19;1265879;23;614;-72
2022/11/21 02:17:09;;;;;;;;;;;;;;;12.59;69.22;100273.16;1267268;23;617;-72
2022/11/21 02:18:00;;;;;;;;;;;;;;;12.61;69.02;100272.06;1267349;23;613;-72
2022/11/21 02:18:50;;;;;;;;;;;;;;;12.60;68.82;100267.69;1265563;23;618;-71
2022/11/21 02:19:40;;;;;;;;;;;;;;;12.57;69.16;100267.94;1265688;23;637;-72
2022/11/21 02:20:31;;;;;;;;;;;;;;;12.62;69.29;100270.25;1265979;23;543;-71
2022/11/21 02:21:21;;;;;;;;;;;;;;;12.62;68.89;100264.91;1265672;23;643;-71
2022/11/21 02:22:12;;;;;;;;;;;;;;;12.63;68.66;100275.47;1265874;23;669;-71
2022/11/21 02:23:02;;;;;;;;;;;;;;;12.62;69.34;100270.25;1265769;23;615;-71
2022/11/21 02:23:53;;;;;;;;;;;;;;;12.62;68.76;100268.41;1265761;23;654;-70
2022/11/21 02:24:43;;;;;;;;;;;;;;;12.60;69.83;100261.50;1265476;23;689;-71
2022/11/21 02:25:33;;;;;;;;;;;;;;;12.60;69.69;100265.03;1267365;23;538;-71
2022/11/21 02:26:24;;;;;;;;;;;;;;;12.59;69.55;100266.00;1267444;23;601;-71
2022/11/21 02:27:14;;;;;;;;;;;;;;;12.57;69.20;100257.25;1265510;23;654;-72
2022/11/21 02:28:05;;;;;;;;;;;;;;;12.58;69.04;100263.44;1265726;23;641;-72
2022/11/21 02:28:55;;;;;;;;;;;;;;;12.62;68.87;100259.56;1264902;23;626;-72
2022/11/21 02:29:46;;;;;;;;;;;;;;;12.66;69.48;100259.19;1267499;23;1888;-72
2022/11/21 02:30:36;;;;;;;;;;;;;;;12.63;69.57;100256.75;1266121;23;630;-72
2022/11/21 02:31:26;;;;;;;;;;;;;;;12.66;68.57;100258.31;1265737;23;603;-72
2022/11/21 02:32:17;;;;;;;;;;;;;;;12.61;68.74;100256.03;1265728;23;615;-72
2022/11/21 02:33:07;;;;;;;;;;;;;;;12.59;68.99;100252.63;1265525;23;638;-72
2022/11/21 02:33:58;;;;;;;;;;;;;;;12.64;69.02;100263.81;1267360;23;598;-72
2022/11/21 02:34:48;;;;;;;;;;;;;;;12.63;68.80;100259.44;1265416;23;642;-70
2022/11/21 02:35:38;;;;;;;;;;;;;;;12.61;68.94;100260.53;1267405;23;583;-71
2022/11/21 02:36:29;;;;;;;;;;;;;;;12.61;69.75;100252.50;1265918;23;607;-71
2022/11/21 02:37:19;;;;;;;;;;;;;;;12.62;68.81;100257.72;1260973;23;622;-70
2022/11/21 02:38:10;;;;;;;;;;;;;;;12.60;69.23;100251.66;1261682;23;724;-71
2022/11/21 02:39:00;;;;;;;;;;;;;;;12.60;69.55;100245.47;1267355;23;637;-71
2022/11/21 02:39:51;;;;;;;;;;;;;;;12.61;69.11;100248.00;1265690;23;720;-71
2022/11/21 02:40:41;;;;;;;;;;;;;;;12.61;69.95;100247.16;1265811;23;603;-71
2022/11/21 02:41:31;;;;;;;;;;;;;;;12.62;69.61;100251.53;1265404;23;658;-71
2022/11/21 02:42:22;;;;;;;;;;;;;;;12.61;69.53;100247.16;1265767;23;638;-70
2022/11/21 02:43:12;;;;;;;;;;;;;;;12.57;69.63;100246.56;1265622;23;653;-71
2022/11/21 02:44:03;;;;;;;;;;;;;;;12.62;69.29;100246.19;1265838;23;654;-70
2022/11/21 02:44:53;;;;;;;;;;;;;;;12.61;69.23;100244.50;1265483;23;606;-70
2022/11/21 02:45:43;;;;;;;;;;;;;;;12.59;69.74;100249.09;1265625;23;796;-71
2022/11/21 02:46:34;;;;;;;;;;;;;;;12.58;70.12;100245.59;1267334;23;633;-71
2022/11/21 02:47:24;;;;;;;;;;;;;;;12.62;69.20;100246.19;1260930;23;543;-71
2022/11/21 02:48:15;;;;;;;;;;;;;;;12.58;69.98;100242.06;1261723;23;649;-71
2022/11/21 02:49:06;;;;;;;;;;;;;;;12.59;69.28;100239.28;1267386;23;551;-72
2022/11/21 02:49:56;;;;;;;;;;;;;;;12.57;69.25;100245.72;1266449;23;1912;-72
2022/11/21 02:50:46;;;;;;;;;;;;;;;12.61;69.69;100239.16;1267346;23;633;-72
2022/11/21 02:51:37;;;;;;;;;;;;;;;12.62;69.82;100241.69;1260844;23;622;-72
2022/11/21 02:52:27;;;;;;;;;;;;;;;12.62;69.57;100236.34;1261754;23;614;-71
2022/11/21 02:53:18;;;;;;;;;;;;;;;12.59;69.58;100233.91;1267349;23;680;-71
2022/11/21 02:54:08;;;;;;;;;;;;;;;12.59;69.64;100238.41;1265585;23;643;-71
2022/11/21 02:54:59;;;;;;;;;;;;;;;12.62;69.70;100239.03;1265673;23;623;-70
2022/11/21 02:55:49;;;;;;;;;;;;;;;12.61;69.13;100237.31;1260774;23;681;-71
2022/11/21 02:56:39;;;;;;;;;;;;;;;12.62;69.18;100233.66;1261859;23;749;-70
2022/11/21 02:57:30;;;;;;;;;;;;;;;12.61;69.59;100228.44;1267244;23;646;-71
2022/11/21 02:58:20;;;;;;;;;;;;;;;12.61;69.17;100231.97;1265491;23;603;-71
2022/11/21 02:59:11;;;;;;;;;;;;;;;12.59;69.47;100225.91;1265647;23;591;-71
2022/11/21 03:00:01;;;;;;;;;;;;;;;12.57;69.21;100225.19;1267358;23;633;-71
2022/11/21 03:00:53;;;;;;;;;;;;;;;12.62;69.71;100222.97;1265484;23;900;-72
2022/11/21 03:01:44;;;;;;;;;;;;;;;12.63;69.49;100224.69;1260870;23;670;-71
2022/11/21 03:02:34;;;;;;;;;;;;;;;12.60;68.93;100222.25;1260055;23;622;-71
2022/11/21 03:03:25;;;;;;;;;;;;;;;12.60;69.07;100235.63;1267265;23;634;-71
2022/11/21 03:04:15;;;;;;;;;;;;;;;12.61;69.91;100221.28;1267303;23;653;-71
2022/11/21 03:05:05;;;;;;;;;;;;;;;12.61;69.25;100223.97;1265537;23;641;-71
2022/11/21 03:05:56;;;;;;;;;;;;;;;12.61;68.98;100220.44;1267260;23;535;-71
2022/11/21 03:06:46;;;;;;;;;;;;;;;12.61;69.56;100218.59;1267364;23;598;-72
2022/11/21 03:07:37;;;;;;;;;;;;;;;12.61;69.98;100225.78;1265650;23;724;-71
2022/11/21 03:08:27;;;;;;;;;;;;;;;12.61;70.04;100223.09;1265492;23;622;-71
2022/11/21 03:09:18;;;;;;;;;;;;;;;12.57;69.30;100222.50;1265655;23;639;-71
2022/11/21 03:10:08;;;;;;;;;;;;;;;12.59;69.26;100223.22;1266234;23;1909;-73
2022/11/21 03:10:59;;;;;;;;;;;;;;;12.58;69.20;100221.53;1267251;23;676;-71
2022/11/21 03:11:49;;;;;;;;;;;;;;;12.58;69.38;100228.69;1265328;23;637;-71
2022/11/21 03:12:40;;;;;;;;;;;;;;;12.61;69.77;100226.63;1265045;23;610;-71
2022/11/21 03:13:30;;;;;;;;;;;;;;;12.60;68.66;100230.28;1265735;23;673;-71
2022/11/21 03:14:20;;;;;;;;;;;;;;;12.57;69.04;100222.50;1267193;23;621;-71
2022/11/21 03:15:11;;;;;;;;;;;;;;;12.53;69.41;100223.75;1265653;23;701;-71
2022/11/21 03:16:01;;;;;;;;;;;;;;;12.56;69.19;100223.47;1260835;23;938;-71
2022/11/21 03:16:52;;;;;;;;;;;;;;;12.56;68.60;100218.13;1261619;23;688;-72
2022/11/21 03:17:42;;;;;;;;;;;;;;;12.59;69.17;100220.56;1268255;23;625;-71
2022/11/21 03:18:33;;;;;;;;;;;;;;;12.54;68.76;100212.06;1267278;23;630;-71
2022/11/21 03:19:23;;;;;;;;;;;;;;;12.53;69.34;100215.75;1265950;23;631;-71
2022/11/21 03:20:13;;;;;;;;;;;;;;;12.51;68.64;100212.34;1267327;23;591;-72
2022/11/21 03:21:04;;;;;;;;;;;;;;;12.50;69.55;100202.63;1267360;23;634;-71
2022/11/21 03:21:54;;;;;;;;;;;;;;;12.50;69.43;100205.31;1267253;23;658;-71
2022/11/21 03:22:45;;;;;;;;;;;;;;;12.54;68.88;100204.03;1260904;23;658;-71
2022/11/21 03:23:35;;;;;;;;;;;;;;;12.52;69.15;100206.88;1260214;23;661;-71
2022/11/21 03:24:25;;;;;;;;;;;;;;;12.54;68.52;100201.38;1267294;23;661;-71
2022/11/21 03:25:16;;;;;;;;;;;;;;;12.55;68.85;100204.91;1265749;23;634;-71
2022/11/21 03:26:07;;;;;;;;;;;;;;;12.58;68.72;100200.16;1267250;23;657;-71
2022/11/21 03:26:57;;;;;;;;;;;;;;;12.55;69.16;100200.41;1264855;23;610;-71
2022/11/21 03:27:48;;;;;;;;;;;;;;;12.58;68.73;100199.31;1265587;23;642;-72
2022/11/21 03:28:38;;;;;;;;;;;;;;;12.58;69.34;100205.50;1265719;23;603;-72
2022/11/21 03:29:28;;;;;;;;;;;;;;;12.58;68.25;100196.63;1267288;23;598;-71
2022/11/21 03:30:19;;;;;;;;;;;;;;;12.55;68.96;100211.09;1265680;23;635;-71
2022/11/21 03:31:09;;;;;;;;;;;;;;;12.57;68.43;100209.13;1265570;23;655;-72
2022/11/21 03:32:00;;;;;;;;;;;;;;;12.59;68.41;100212.53;1265595;23;611;-71
2022/11/21 03:32:50;;;;;;;;;;;;;;;12.57;69.24;100203.78;1266267;23;689;-72
2022/11/21 03:33:41;;;;;;;;;;;;;;;12.61;69.14;100201.72;1265622;23;631;-72
2022/11/21 03:34:31;;;;;;;;;;;;;;;12.55;68.29;100200.41;1265800;23;653;-71
2022/11/21 03:35:21;;;;;;;;;;;;;;;12.57;69.04;100203.78;1267196;23;669;-72
2022/11/21 03:36:12;;;;;;;;;;;;;;;12.56;69.16;100196.75;1265653;23;623;-71
2022/11/21 03:37:02;;;;;;;;;;;;;;;12.52;69.13;100195.34;1267280;23;665;-71
2022/11/21 03:37:53;;;;;;;;;;;;;;;12.50;69.18;100203.47;1265622;23;658;-72
2022/11/21 03:38:43;;;;;;;;;;;;;;;12.52;68.52;100201.53;1265878;23;638;-71
2022/11/21 03:39:33;;;;;;;;;;;;;;;12.55;68.76;100205.75;1267378;23;650;-71
2022/11/21 03:40:24;;;;;;;;;;;;;;;12.54;68.28;100206.72;1265676;23;650;-70
2022/11/21 03:41:30;;;;;;;;;;;;;;;12.54;69.15;100204.03;1266678;23;614;-71
2022/11/21 03:42:20;;;;;;;;;;;;;;;12.54;69.12;100209.38;1265637;23;673;-71
2022/11/21 03:43:10;;;;;;;;;;;;;;;12.56;68.74;100209.25;1267274;23;573;-71
2022/11/21 03:44:01;;;;;;;;;;;;;;;12.57;68.82;100209.13;1265472;23;638;-71
2022/11/21 03:44:51;;;;;;;;;;;;;;;12.55;69.06;100208.41;1265429;23;591;-71
2022/11/21 03:45:42;;;;;;;;;;;;;;;12.51;68.30;100199.84;1265592;23;631;-71
2022/11/21 03:46:32;;;;;;;;;;;;;;;12.53;68.23;100202.38;1260764;23;724;-72
2022/11/21 03:47:24;;;;;;;;;;;;;;;12.54;68.43;100193.34;1261638;23;615;-72
2022/11/21 03:48:15;;;;;;;;;;;;;;;12.55;69.16;100192.38;1266291;23;657;-71
2022/11/21 03:49:05;;;;;;;;;;;;;;;12.55;68.64;100191.53;1260816;23;638;-72
2022/11/21 03:49:55;;;;;;;;;;;;;;;12.53;68.14;100191.69;1261642;23;1938;-72
2022/11/21 03:50:46;;;;;;;;;;;;;;;12.48;68.66;100188.53;1262370;23;696;-72
2022/11/21 03:51:36;;;;;;;;;;;;;;;12.51;68.15;100189.16;1261818;23;708;-71
2022/11/21 03:52:27;;;;;;;;;;;;;;;12.53;69.04;100191.69;1267000;23;606;-71
2022/11/21 03:53:17;;;;;;;;;;;;;;;12.52;68.95;100192.66;1265693;23;634;-71
2022/11/21 03:54:07;;;;;;;;;;;;;;;12.52;68.33;100190.00;1265465;23;570;-71
2022/11/21 03:54:58;;;;;;;;;;;;;;;12.53;68.35;100181.00;1267090;23;579;-71
2022/11/21 03:55:51;;;;;;;;;;;;;;;12.57;68.73;100185.09;1264875;23;647;-71
2022/11/21 03:56:41;;;;;;;;;;;;;;;12.52;68.77;100184.66;1264834;23;623;-71
2022/11/21 03:57:31;;;;;;;;;;;;;;;12.48;69.34;100177.84;1265389;23;654;-71
2022/11/21 03:58:22;;;;;;;;;;;;;;;12.46;69.37;100191.34;1267032;23;648;-72
2022/11/21 03:59:12;;;;;;;;;;;;;;;12.49;69.23;100183.06;1265311;23;666;-72
2022/11/21 04:00:03;;;;;;;;;;;;;;;12.50;68.34;100186.59;1265398;23;611;-70
2022/11/21 04:00:53;;;;;;;;;;;;;;;12.49;69.10;100190.25;1265641;23;579;-72
2022/11/21 04:01:43;;;;;;;;;;;;;;;12.51;68.63;100193.63;1265436;23;666;-72
2022/11/21 04:02:34;;;;;;;;;;;;;;;12.52;68.56;100185.50;1265632;23;669;-72
2022/11/21 04:03:24;;;;;;;;;;;;;;;12.51;69.08;100185.63;1265303;23;646;-72
2022/11/21 04:04:15;;;;;;;;;;;;;;;12.54;68.13;100184.53;1253519;23;666;-72
2022/11/21 04:05:05;;;;;;;;;;;;;;;12.52;69.05;100184.66;1255346;23;622;-72
2022/11/21 04:05:56;;;;;;;;;;;;;;;12.56;68.22;100183.38;1254281;23;642;-72
2022/11/21 04:06:46;;;;;;;;;;;;;;;12.54;68.83;100181.84;1255486;23;661;-72
2022/11/21 04:07:37;;;;;;;;;;;;;;;12.50;68.40;100176.75;1255120;23;672;-70
2022/11/21 04:08:27;;;;;;;;;;;;;;;12.50;68.87;100182.09;1254024;23;688;-71
2022/11/21 04:09:18;;;;;;;;;;;;;;;12.50;68.49;100181.25;1248278;23;661;-71
2022/11/21 04:10:08;;;;;;;;;;;;;;;12.51;69.29;100180.28;1254664;23;1941;-70
2022/11/21 04:10:59;;;;;;;;;;;;;;;12.51;68.31;100182.94;1255111;23;545;-70
2022/11/21 04:11:49;;;;;;;;;;;;;;;12.51;68.33;100185.63;1254499;23;626;-70
2022/11/21 04:12:39;;;;;;;;;;;;;;;12.50;68.38;100181.25;1255257;23;661;-71
2022/11/21 04:13:30;;;;;;;;;;;;;;;12.51;68.33;100178.44;1255370;23;653;-70
2022/11/21 04:14:20;;;;;;;;;;;;;;;12.53;68.42;100181.00;1255181;23;637;-71
2022/11/21 04:15:11;;;;;;;;;;;;;;;12.53;68.86;100186.34;1255218;23;606;-71
2022/11/21 04:16:01;;;;;;;;;;;;;;;12.50;68.85;100186.59;1254388;23;602;-70
2022/11/21 04:16:51;;;;;;;;;;;;;;;12.52;69.01;100187.31;1255261;23;627;-71
2022/11/21 04:17:42;;;;;;;;;;;;;;;12.46;68.60;100186.00;1255153;23;649;-71
2022/11/21 04:18:32;;;;;;;;;;;;;;;12.50;69.45;100186.59;1254276;23;638;-71
2022/11/21 04:19:23;;;;;;;;;;;;;;;12.47;69.08;100187.69;1255224;23;717;-71
2022/11/21 04:20:13;;;;;;;;;;;;;;;12.46;68.63;100186.00;1254430;23;590;-71
2022/11/21 04:21:04;;;;;;;;;;;;;;;12.47;68.57;100190.38;1255230;23;634;-71
2022/11/21 04:21:54;;;;;;;;;;;;;;;12.45;68.93;100192.31;1254474;23;634;-71
2022/11/21 04:22:44;;;;;;;;;;;;;;;12.48;69.45;100188.53;1255240;23;602;-71
2022/11/21 04:23:35;;;;;;;;;;;;;;;12.47;69.50;100181.50;1255117;23;657;-71
2022/11/21 04:24:25;;;;;;;;;;;;;;;12.48;69.39;100188.53;1255222;23;653;-71
2022/11/21 04:25:16;;;;;;;;;;;;;;;12.51;68.73;100182.94;1255217;23;603;-71
2022/11/21 04:26:06;;;;;;;;;;;;;;;12.52;68.68;100176.63;1254082;23;634;-71